Time;durP1;ratioP1;P1;durP2;ratioP2;P2;SDS_P1;SDS_P2;PMS_P1;PMS_P2;Temp;Humidity;BMP_temperature;BMP_pressure;BME280_temperature;BME280_humidity;BME280_pressure;Samples;Min_cycle;Max_cycle;Signal;HPM_P1;HPM_P2
2023/12/24 00:00:37;;;;;;;0.90;0.70;;;;;;;9.79;nan;99769.78;5005839;28;20233;-79
2023/12/24 00:03:04;;;;;;;0.90;0.80;;;;;;;9.76;nan;99767.34;5009525;28;20292;-79
2023/12/24 00:05:29;;;;;;;1.67;1.20;;;;;;;9.81;nan;99746.94;5007316;28;20434;-78
2023/12/24 00:07:55;;;;;;;2.20;1.37;;;;;;;9.82;nan;99763.50;5010773;28;20241;-78
2023/12/24 00:10:20;;;;;;;1.90;1.03;;;;;;;9.80;nan;99763.59;5007894;28;20721;-78
2023/12/24 00:12:46;;;;;;;1.03;0.70;;;;;;;9.80;nan;99760.97;5004761;28;20198;-80
2023/12/24 00:15:12;;;;;;;1.60;0.90;;;;;;;9.81;nan;99772.31;5010171;28;20194;-79
2023/12/24 00:17:37;;;;;;;1.53;1.00;;;;;;;9.80;nan;99768.84;5007809;28;20220;-80
2023/12/24 00:20:03;;;;;;;1.20;0.70;;;;;;;9.79;nan;99754.03;5007204;28;20226;-80
2023/12/24 00:22:29;;;;;;;1.80;0.73;;;;;;;9.79;nan;99743.53;5004995;28;20214;-77
2023/12/24 00:24:54;;;;;;;0.90;0.80;;;;;;;9.77;nan;99742.78;5008933;28;20621;-81
2023/12/24 00:27:20;;;;;;;1.10;1.00;;;;;;;9.82;nan;99742.53;5004646;28;20468;-80
2023/12/24 00:29:45;;;;;;;1.20;0.93;;;;;;;9.83;nan;99747.69;5003953;28;20214;-81
2023/12/24 00:32:11;;;;;;;0.70;0.70;;;;;;;9.81;nan;99740.84;5004938;28;20203;-80
2023/12/24 00:34:37;;;;;;;0.80;0.70;;;;;;;9.82;nan;99747.78;5008083;28;20212;-76
2023/12/24 00:37:02;;;;;;;0.90;0.80;;;;;;;9.85;nan;99743.19;4998827;28;20214;-76
2023/12/24 00:39:28;;;;;;;1.00;0.90;;;;;;;9.85;nan;99745.81;5001241;28;20211;-77
2023/12/24 00:41:53;;;;;;;1.20;0.70;;;;;;;9.83;nan;99746.81;5009026;28;20594;-77
2023/12/24 00:44:19;;;;;;;1.53;0.70;;;;;;;9.83;nan;99763.44;5002463;28;20186;-77
2023/12/24 00:46:44;;;;;;;1.23;0.87;;;;;;;9.81;nan;99743.47;5001025;28;20209;-76
2023/12/24 00:49:10;;;;;;;3.70;0.70;;;;;;;9.80;nan;99749.63;5004811;28;20244;-76
2023/12/24 00:51:43;;;;;;;0.90;0.70;;;;;;;9.75;nan;99744.66;5006299;28;20214;-75
2023/12/24 00:54:13;;;;;;;0.90;0.73;;;;;;;9.74;nan;99729.84;5000375;28;20453;-75
2023/12/24 00:56:38;;;;;;;2.40;1.00;;;;;;;9.74;nan;99746.44;5001268;28;20212;-75
2023/12/24 00:59:04;;;;;;;0.73;0.70;;;;;;;9.72;nan;99742.19;5001922;28;20612;-74
2023/12/24 01:01:29;;;;;;;0.93;0.70;;;;;;;9.70;nan;99733.59;5005626;28;20217;-74
2023/12/24 01:03:55;;;;;;;1.10;0.83;;;;;;;9.71;nan;99730.03;4999270;28;20191;-76
2023/12/24 01:06:20;;;;;;;0.83;0.83;;;;;;;9.72;nan;99731.72;5007655;28;20202;-75
2023/12/24 01:08:45;;;;;;;3.93;0.80;;;;;;;9.71;nan;99732.66;5007327;28;20206;-75
2023/12/24 01:11:12;;;;;;;1.83;0.77;;;;;;;9.73;nan;99731.63;4999213;28;20840;-75
2023/12/24 01:13:38;;;;;;;1.05;0.80;;;;;;;9.77;nan;99734.06;5004746;28;20226;-76
2023/12/24 01:16:04;;;;;;;1.00;0.90;;;;;;;9.78;nan;99741.88;4998946;28;20278;-76
2023/12/24 01:18:29;;;;;;;1.00;0.80;;;;;;;9.77;nan;99737.53;5021445;28;20690;-75
2023/12/24 01:23:40;;;;;;;1.80;0.70;;;;;;;9.79;nan;99737.47;4920870;28;20225;-76
2023/12/24 01:26:07;;;;;;;1.33;0.70;;;;;;;9.79;nan;99740.91;4911710;28;20608;-77
2023/12/24 01:28:32;;;;;;;2.45;0.80;;;;;;;9.80;nan;99734.72;4924253;28;20192;-77
2023/12/24 01:30:58;;;;;;;1.57;0.87;;;;;;;9.82;nan;99730.25;4942421;28;20238;-76
2023/12/24 01:33:23;;;;;;;1.53;0.90;;;;;;;9.77;nan;99737.53;4937701;28;20579;-77
2023/12/24 01:35:48;;;;;;;4.17;1.57;;;;;;;9.80;nan;99737.34;4938165;28;20782;-76
2023/12/24 01:38:14;;;;;;;1.80;0.80;;;;;;;9.83;nan;99731.94;4929071;28;20251;-77
2023/12/24 01:40:46;;;;;;;0.70;0.67;;;;;;;9.80;nan;99732.09;4924618;28;20464;-77
2023/12/24 01:43:11;;;;;;;0.77;0.70;;;;;;;9.82;nan;99737.28;4940746;28;20238;-77
2023/12/24 01:45:37;;;;;;;1.87;0.80;;;;;;;9.85;nan;99743.19;4937540;28;20227;-78
2023/12/24 01:48:03;;;;;;;1.57;0.90;;;;;;;9.85;nan;99735.31;4940315;28;20882;-77
2023/12/24 01:50:29;;;;;;;1.33;0.90;;;;;;;9.86;nan;99746.66;4925473;28;20196;-78
2023/12/24 01:52:55;;;;;;;1.25;0.80;;;;;;;9.86;nan;99723.06;4925982;28;20220;-77
2023/12/24 01:55:20;;;;;;;1.43;0.70;;;;;;;9.84;nan;99735.41;4938432;28;20204;-77
2023/12/24 01:57:46;;;;;;;2.50;0.70;;;;;;;9.85;nan;99740.56;4923698;28;20564;-77
2023/12/24 02:00:12;;;;;;;1.17;0.90;;;;;;;9.87;nan;99737.84;4926840;28;20588;-77
2023/12/24 02:02:38;;;;;;;1.00;0.60;;;;;;;9.85;nan;99735.31;4926924;28;20303;-77
2023/12/24 02:05:05;;;;;;;1.55;0.90;;;;;;;9.87;nan;99736.06;4926886;28;20203;-78
2023/12/24 02:07:34;;;;;;;0.80;0.63;;;;;;;9.83;nan;99733.72;4922451;28;20181;-77
2023/12/24 02:10:00;;;;;;;0.80;0.70;;;;;;;9.83;nan;99731.94;4941299;28;20585;-77
2023/12/24 02:12:25;;;;;;;0.90;0.70;;;;;;;9.85;nan;99737.09;4938642;28;20204;-77
2023/12/24 02:14:51;;;;;;;1.10;0.70;;;;;;;9.85;nan;99740.56;4925645;28;20200;-77
2023/12/24 02:17:17;;;;;;;1.10;0.87;;;;;;;9.84;nan;99749.38;4939575;28;20212;-77
2023/12/24 02:19:42;;;;;;;1.35;0.70;;;;;;;9.80;nan;99747.84;4925100;28;20535;-77
2023/12/24 02:22:08;;;;;;;0.70;0.60;;;;;;;9.80;nan;99739.97;4926921;28;20259;-77
2023/12/24 02:24:33;;;;;;;0.90;0.80;;;;;;;9.85;nan;99752.84;4941929;28;20216;-77
2023/12/24 02:27:13;;;;;;;5.30;1.00;;;;;;;9.85;nan;99753.66;4930530;28;20197;-77
2023/12/24 02:29:42;;;;;;;0.98;0.70;;;;;;;9.85;nan;99740.56;4938824;28;20201;-76
2023/12/24 02:32:14;;;;;;;0.88;0.70;;;;;;;9.89;nan;99743.88;4941295;28;20283;-78
2023/12/24 02:34:43;;;;;;;1.38;1.00;;;;;;;9.89;nan;99755.19;4921201;28;20212;-77
2023/12/24 02:37:08;;;;;;;1.23;0.70;;;;;;;9.94;nan;99740.03;4942182;28;20279;-77
2023/12/24 02:39:41;;;;;;;0.83;0.70;;;;;;;9.97;nan;99744.25;4942090;28;20224;-77
2023/12/24 02:42:08;;;;;;;1.83;0.90;;;;;;;9.93;nan;99745.34;4943758;28;20419;-77
2023/12/24 02:44:35;;;;;;;2.45;0.80;;;;;;;9.97;nan;99746.88;4942548;28;20688;-77
2023/12/24 02:47:01;;;;;;;1.58;0.98;;;;;;;9.95;nan;99749.59;4942176;28;20247;-77
2023/12/24 02:49:26;;;;;;;0.90;0.70;;;;;;;9.98;nan;99749.41;4940146;28;20201;-77
2023/12/24 02:51:51;;;;;;;0.60;0.60;;;;;;;10.02;nan;99733.47;4946774;28;20216;-77
2023/12/24 02:54:17;;;;;;;1.63;0.80;;;;;;;10.01;nan;99737.88;4926463;28;20204;-77
2023/12/24 02:56:42;;;;;;;0.80;0.60;;;;;;;10.01;nan;99737.03;4941471;28;20587;-76
2023/12/24 02:59:08;;;;;;;1.80;1.10;;;;;;;10.02;nan;99738.72;4942477;28;20434;-76
2023/12/24 03:01:34;;;;;;;1.25;0.80;;;;;;;10.01;nan;99729.16;4931360;28;20212;-77
2023/12/24 03:03:59;;;;;;;1.97;0.67;;;;;;;10.01;nan;99737.03;4933007;28;20208;-76
2023/12/24 03:06:25;;;;;;;0.70;0.70;;;;;;;10.03;nan;99724.69;4947742;28;20197;-77
2023/12/24 03:08:50;;;;;;;0.70;0.60;;;;;;;10.03;nan;99724.69;4930108;28;20197;-77
2023/12/24 03:11:16;;;;;;;1.03;0.80;;;;;;;10.01;nan;99702.94;4943125;28;20232;-77
2023/12/24 03:13:41;;;;;;;1.00;0.80;;;;;;;10.05;nan;99725.44;4930554;28;20203;-76
2023/12/24 03:16:06;;;;;;;1.03;0.60;;;;;;;10.05;nan;99738.56;4944489;28;20470;-77
2023/12/24 03:18:32;;;;;;;0.80;0.73;;;;;;;10.07;nan;99731.41;4942828;28;20192;-77
2023/12/24 03:20:59;;;;;;;1.90;1.60;;;;;;;10.03;nan;99730.78;4929229;28;20750;-77
2023/12/24 03:23:25;;;;;;;0.90;0.57;;;;;;;10.06;nan;99730.56;4929727;28;20220;-76
2023/12/24 03:25:50;;;;;;;0.87;0.80;;;;;;;10.07;nan;99724.41;4929776;28;20223;-76
2023/12/24 03:28:17;;;;;;;1.33;0.90;;;;;;;10.08;nan;99725.25;4929336;28;20223;-77
2023/12/24 03:30:42;;;;;;;0.70;0.70;;;;;;;10.08;nan;99725.25;4937114;28;20196;-76
2023/12/24 03:33:07;;;;;;;0.60;0.60;;;;;;;10.08;nan;99709.50;4943802;28;20315;-77
2023/12/24 03:35:34;;;;;;;0.80;0.60;;;;;;;10.09;nan;99701.53;4939848;28;20657;-76
2023/12/24 03:37:59;;;;;;;1.00;0.70;;;;;;;10.10;nan;99699.75;4929219;28;20528;-77
2023/12/24 03:40:24;;;;;;;1.37;0.90;;;;;;;10.07;nan;99692.91;4941079;28;20306;-76
2023/12/24 03:42:50;;;;;;;0.70;0.70;;;;;;;10.07;nan;99692.91;4940357;28;20205;-77
2023/12/24 03:45:16;;;;;;;0.90;0.80;;;;;;;10.05;nan;99689.53;4945146;28;20842;-76
2023/12/24 03:47:41;;;;;;;0.77;0.70;;;;;;;10.07;nan;99706.03;4942384;28;20821;-76
2023/12/24 03:50:07;;;;;;;1.77;1.10;;;;;;;10.06;nan;99690.38;4929744;28;20208;-76
2023/12/24 03:52:32;;;;;;;1.27;0.70;;;;;;;10.07;nan;99678.94;4924510;28;20205;-76
2023/12/24 03:54:57;;;;;;;1.17;0.70;;;;;;;10.05;nan;99665.09;4938420;28;20681;-76
2023/12/24 03:57:23;;;;;;;0.90;0.60;;;;;;;10.05;nan;99655.41;4944846;28;20239;-76
2023/12/24 03:59:48;;;;;;;1.13;1.03;;;;;;;10.01;nan;99640.78;4925495;28;20223;-77
2023/12/24 04:02:14;;;;;;;0.70;0.70;;;;;;;10.02;nan;99639.00;4942330;28;21000;-76
2023/12/24 04:04:47;;;;;;;0.80;0.70;;;;;;;10.03;nan;99641.53;4942493;28;20193;-77
2023/12/24 04:07:15;;;;;;;1.55;0.80;;;;;;;10.03;nan;99627.59;4931235;28;20196;-77
2023/12/24 04:09:41;;;;;;;0.70;0.60;;;;;;;10.05;nan;99630.97;4944584;28;20524;-76
2023/12/24 04:12:07;;;;;;;1.10;0.80;;;;;;;10.05;nan;99631.81;4929418;28;20240;-76
2023/12/24 04:14:36;;;;;;;0.85;0.82;;;;;;;10.04;nan;99643.22;4940345;28;20197;-76
2023/12/24 04:17:02;;;;;;;0.60;0.50;;;;;;;10.06;nan;99630.00;4928752;28;20712;-77
2023/12/24 04:19:27;;;;;;;1.63;0.70;;;;;;;10.08;nan;99633.41;4942912;28;20673;-76
2023/12/24 04:21:53;;;;;;;1.07;0.80;;;;;;;10.08;nan;99631.63;4941819;28;20863;-77
2023/12/24 04:24:18;;;;;;;0.80;0.67;;;;;;;10.07;nan;99637.81;4943907;28;20203;-76
2023/12/24 04:26:43;;;;;;;1.07;0.60;;;;;;;10.07;nan;99647.44;4923319;28;20867;-76
2023/12/24 04:29:09;;;;;;;0.70;0.70;;;;;;;10.09;nan;99648.19;4927374;28;20192;-77
2023/12/24 04:31:39;;;;;;;0.80;0.70;;;;;;;10.12;nan;99648.84;4927843;28;20689;-76
2023/12/24 04:34:09;;;;;;;0.70;0.60;;;;;;;10.12;nan;99642.75;4939775;28;20680;-76
2023/12/24 04:36:34;;;;;;;0.70;0.70;;;;;;;10.12;nan;99651.47;4927539;28;20192;-76
2023/12/24 04:39:00;;;;;;;1.10;0.80;;;;;;;10.13;nan;99653.16;4940147;28;20486;-77
2023/12/24 04:41:29;;;;;;;1.23;0.80;;;;;;;10.14;nan;99659.25;4928884;28;20258;-77
2023/12/24 04:43:55;;;;;;;1.27;0.63;;;;;;;10.13;nan;99668.09;4928818;28;20840;-76
2023/12/24 04:46:21;;;;;;;1.70;0.70;;;;;;;10.19;nan;99668.53;4924289;28;20208;-77
2023/12/24 04:48:47;;;;;;;0.73;0.63;;;;;;;10.18;nan;99669.50;4942233;28;20455;-77
2023/12/24 04:51:12;;;;;;;0.90;0.63;;;;;;;10.20;nan;99661.50;4927177;28;20219;-76
2023/12/24 04:53:38;;;;;;;0.63;0.60;;;;;;;10.21;nan;99657.97;4926263;28;20208;-76
2023/12/24 04:56:04;;;;;;;0.90;0.60;;;;;;;10.24;nan;99655.13;4938895;28;20215;-77
2023/12/24 04:58:29;;;;;;;0.83;0.60;;;;;;;10.24;nan;99668.25;4927291;28;20188;-77
2023/12/24 05:00:57;;;;;;;0.60;0.50;;;;;;;10.21;nan;99665.84;4943585;28;20476;-76
2023/12/24 05:03:22;;;;;;;0.80;0.65;;;;;;;10.20;nan;99664.97;4942465;28;20200;-76
2023/12/24 05:05:48;;;;;;;0.60;0.50;;;;;;;10.25;nan;99674.34;4937464;28;20207;-77
2023/12/24 05:08:13;;;;;;;0.87;0.60;;;;;;;10.25;nan;99658.59;4927029;28;20573;-76
2023/12/24 05:10:39;;;;;;;0.70;0.60;;;;;;;10.26;nan;99655.91;4925854;28;20836;-76
2023/12/24 05:13:05;;;;;;;0.90;0.60;;;;;;;10.24;nan;99665.63;4925409;28;20208;-76
2023/12/24 05:15:30;;;;;;;0.60;0.60;;;;;;;10.25;nan;99663.84;4926354;28;20460;-76
2023/12/24 05:17:55;;;;;;;0.60;0.50;;;;;;;10.25;nan;99655.97;4942013;28;20600;-76
2023/12/24 05:20:24;;;;;;;0.60;0.50;;;;;;;10.25;nan;99664.69;4928545;28;20208;-76
2023/12/24 05:22:49;;;;;;;0.70;0.60;;;;;;;10.25;nan;99662.06;4931565;28;20294;-76
2023/12/24 05:25:14;;;;;;;1.63;0.53;;;;;;;10.23;nan;99650.81;4941971;28;20208;-76
2023/12/24 05:27:40;;;;;;;0.60;0.50;;;;;;;10.20;nan;99640.50;4941473;28;20635;-76
2023/12/24 05:30:08;;;;;;;1.43;0.60;;;;;;;10.16;nan;99654.78;4941563;28;20777;-76
2023/12/24 05:32:34;;;;;;;0.60;0.50;;;;;;;10.15;nan;99655.69;4941349;28;20212;-76
2023/12/24 05:34:59;;;;;;;0.80;0.60;;;;;;;10.16;nan;99668.72;4938934;28;20240;-76
2023/12/24 05:37:25;;;;;;;0.90;0.70;;;;;;;10.16;nan;99673.13;4935553;28;20519;-76
2023/12/24 05:39:50;;;;;;;0.60;0.60;;;;;;;10.13;nan;99671.53;4939644;28;20692;-76
2023/12/24 05:42:16;;;;;;;0.80;0.70;;;;;;;10.12;nan;99663.75;4943989;28;20200;-76
2023/12/24 05:44:41;;;;;;;0.60;0.50;;;;;;;10.12;nan;99661.13;4941213;28;20205;-76
2023/12/24 05:47:06;;;;;;;0.80;0.60;;;;;;;10.13;nan;99671.53;4939525;28;20286;-77
2023/12/24 05:49:33;;;;;;;0.73;0.63;;;;;;;10.15;nan;99679.31;4936016;28;20189;-77
2023/12/24 05:51:59;;;;;;;1.15;0.90;;;;;;;10.11;nan;99672.56;4941469;28;20375;-77
2023/12/24 05:54:24;;;;;;;0.70;0.60;;;;;;;10.11;nan;99672.56;4941957;28;20227;-76
2023/12/24 05:56:49;;;;;;;0.60;0.60;;;;;;;10.10;nan;99660.38;4939092;28;20216;-76
2023/12/24 05:59:15;;;;;;;1.10;0.53;;;;;;;10.14;nan;99675.84;4946425;28;20216;-76
2023/12/24 06:01:42;;;;;;;5.50;0.60;;;;;;;10.13;nan;99652.34;4947008;28;20311;-76
2023/12/24 06:04:07;;;;;;;0.63;0.50;;;;;;;10.11;nan;99651.56;4944604;28;20317;-76
2023/12/24 06:06:33;;;;;;;0.70;0.60;;;;;;;10.09;nan;99651.66;4939354;28;21059;-76
2023/12/24 06:08:58;;;;;;;0.80;0.80;;;;;;;10.09;nan;99656.06;4938067;28;20312;-77
2023/12/24 06:11:24;;;;;;;0.57;0.50;;;;;;;10.09;nan;99666.56;4936637;28;20220;-76
2023/12/24 06:13:49;;;;;;;0.67;0.50;;;;;;;10.02;nan;99652.13;4935494;28;20747;-77
2023/12/24 06:16:14;;;;;;;1.67;0.53;;;;;;;10.01;nan;99661.78;4941274;28;20299;-77
2023/12/24 06:18:40;;;;;;;0.60;0.53;;;;;;;10.07;nan;99655.31;4934395;28;20211;-76
2023/12/24 06:21:08;;;;;;;0.93;0.57;;;;;;;10.06;nan;99653.63;4936330;28;20219;-76
2023/12/24 06:23:33;;;;;;;1.08;0.50;;;;;;;10.09;nan;99645.56;4939870;28;20238;-76
2023/12/24 06:25:59;;;;;;;0.60;0.60;;;;;;;10.07;nan;99634.31;4939909;28;20862;-76
2023/12/24 06:28:24;;;;;;;0.80;0.70;;;;;;;10.04;nan;99621.38;4944395;28;20283;-76
2023/12/24 06:30:50;;;;;;;0.60;0.60;;;;;;;10.04;nan;99618.75;4939761;28;20586;-77
2023/12/24 06:33:15;;;;;;;0.70;0.60;;;;;;;10.05;nan;99609.97;4951654;28;20200;-77
2023/12/24 06:35:41;;;;;;;0.60;0.50;;;;;;;10.04;nan;99616.97;4949915;28;20214;-76
2023/12/24 06:38:06;;;;;;;0.80;0.60;;;;;;;10.02;nan;99618.00;4948925;28;20204;-77
2023/12/24 06:40:33;;;;;;;0.70;0.70;;;;;;;10.06;nan;99609.03;4946728;28;20201;-76
2023/12/24 06:42:58;;;;;;;0.90;0.60;;;;;;;10.09;nan;99583.41;4950700;28;21015;-77
2023/12/24 06:45:24;;;;;;;0.70;0.60;;;;;;;10.11;nan;99601.72;4950785;28;20265;-77
2023/12/24 06:47:49;;;;;;;0.60;0.60;;;;;;;10.08;nan;99587.00;4949111;28;20675;-77
2023/12/24 06:50:15;;;;;;;0.90;0.70;;;;;;;10.06;nan;99583.63;4948470;28;20201;-76
2023/12/24 06:52:41;;;;;;;0.60;0.50;;;;;;;10.10;nan;99592.13;4949932;28;20710;-77
2023/12/24 06:55:07;;;;;;;1.80;0.60;;;;;;;10.12;nan;99585.00;4948890;28;20200;-76
2023/12/24 06:57:32;;;;;;;0.50;0.40;;;;;;;10.14;nan;99585.78;4953811;28;20200;-77
2023/12/24 06:59:58;;;;;;;0.60;0.50;;;;;;;10.13;nan;99590.19;4950333;28;20568;-77
2023/12/24 07:02:23;;;;;;;0.60;0.50;;;;;;;10.17;nan;99589.03;4951597;28;20618;-76
2023/12/24 07:04:49;;;;;;;1.73;0.77;;;;;;;10.17;nan;99599.53;4951529;28;20199;-77
2023/12/24 07:07:14;;;;;;;0.70;0.60;;;;;;;10.14;nan;99593.63;4951350;28;20206;-76
2023/12/24 07:09:40;;;;;;;2.73;0.73;;;;;;;10.13;nan;99592.81;4952569;28;20201;-77
2023/12/24 07:12:05;;;;;;;1.17;0.80;;;;;;;10.18;nan;99590.75;4949620;28;20661;-77
2023/12/24 07:14:31;;;;;;;2.53;0.80;;;;;;;10.18;nan;99598.63;4949745;28;20211;-76
2023/12/24 07:16:56;;;;;;;0.83;0.83;;;;;;;10.14;nan;99597.09;4949563;28;20455;-77
2023/12/24 07:19:22;;;;;;;0.60;0.50;;;;;;;10.18;nan;99588.13;4951062;28;20572;-76
2023/12/24 07:21:47;;;;;;;0.73;0.60;;;;;;;10.23;nan;99593.06;4950057;28;20236;-76
2023/12/24 07:24:12;;;;;;;0.70;0.60;;;;;;;10.26;nan;99599.91;4949661;28;20204;-78
2023/12/24 07:26:38;;;;;;;0.70;0.60;;;;;;;10.29;nan;99597.97;4951008;28;20406;-77
2023/12/24 07:29:03;;;;;;;0.83;0.70;;;;;;;10.32;nan;99596.94;4950204;28;20674;-76
2023/12/24 07:31:28;;;;;;;1.30;0.70;;;;;;;10.27;nan;99601.59;4950371;28;20211;-77
2023/12/24 07:33:54;;;;;;;2.20;1.00;;;;;;;10.28;nan;99587.56;4946775;28;20763;-77
2023/12/24 07:36:19;;;;;;;0.93;0.93;;;;;;;10.33;nan;99598.63;4943869;28;20191;-76
2023/12/24 07:38:44;;;;;;;1.57;0.77;;;;;;;10.30;nan;99573.41;4947008;28;20304;-77
2023/12/24 07:41:10;;;;;;;1.10;0.60;;;;;;;10.35;nan;99579.22;4950523;28;20681;-76
2023/12/24 07:43:35;;;;;;;1.10;0.80;;;;;;;10.36;nan;99595.78;4947279;28;20470;-77
2023/12/24 07:46:01;;;;;;;0.60;0.57;;;;;;;10.41;nan;99583.22;4944722;28;20946;-76
2023/12/24 07:48:26;;;;;;;0.70;0.63;;;;;;;10.43;nan;99575.25;4950548;28;20283;-77
2023/12/24 07:50:52;;;;;;;0.70;0.70;;;;;;;10.41;nan;99572.72;4943869;28;20197;-77
2023/12/24 07:53:18;;;;;;;0.67;0.60;;;;;;;10.47;nan;99571.47;4944950;28;20629;-77
2023/12/24 07:55:43;;;;;;;0.85;0.80;;;;;;;10.52;nan;99569.41;4946630;28;20193;-77
2023/12/24 07:58:09;;;;;;;0.90;0.67;;;;;;;10.52;nan;99574.66;4949576;28;20834;-77
2023/12/24 08:00:34;;;;;;;0.70;0.60;;;;;;;10.53;nan;99576.34;4943858;28;20224;-78
2023/12/24 08:03:00;;;;;;;0.80;0.80;;;;;;;10.54;nan;99578.03;4948224;28;20207;-76
2023/12/24 08:05:25;;;;;;;0.80;0.80;;;;;;;10.56;nan;99555.16;4947246;28;20196;-77
2023/12/24 08:07:51;;;;;;;0.70;0.70;;;;;;;10.55;nan;99543.78;4945268;28;20196;-77
2023/12/24 08:10:16;;;;;;;1.00;0.67;;;;;;;10.58;nan;99553.25;4946589;28;20235;-76
2023/12/24 08:12:42;;;;;;;0.80;0.80;;;;;;;10.58;nan;99577.72;4949137;28;20208;-76
2023/12/24 08:15:08;;;;;;;0.80;0.63;;;;;;;10.61;nan;99574.06;4947242;28;20238;-77
2023/12/24 08:17:33;;;;;;;1.87;0.80;;;;;;;10.61;nan;99566.19;4946961;28;20207;-76
2023/12/24 08:19:59;;;;;;;1.20;1.03;;;;;;;10.61;nan;99584.56;4946746;28;20238;-76
2023/12/24 08:22:25;;;;;;;0.90;0.70;;;;;;;10.60;nan;99570.59;4944706;28;20229;-78
2023/12/24 08:24:51;;;;;;;0.95;0.70;;;;;;;10.63;nan;99573.03;4947307;28;20204;-77
2023/12/24 08:27:16;;;;;;;0.70;0.67;;;;;;;10.71;nan;99562.03;4946808;28;20211;-76
2023/12/24 08:29:41;;;;;;;1.03;0.97;;;;;;;10.74;nan;99551.31;4947561;28;20826;-77
2023/12/24 08:32:07;;;;;;;0.87;0.50;;;;;;;10.76;nan;99583.59;4947129;28;20220;-76
2023/12/24 08:34:35;;;;;;;4.63;1.00;;;;;;;10.78;nan;99573.84;4943043;28;20202;-76
2023/12/24 08:37:00;;;;;;;0.80;0.70;;;;;;;10.77;nan;99572.13;4943561;28;20755;-76
2023/12/24 08:39:25;;;;;;;1.43;0.80;;;;;;;10.80;nan;99573.72;4944279;28;20236;-77
2023/12/24 08:41:51;;;;;;;0.90;0.70;;;;;;;10.81;nan;99578.03;4944895;28;20827;-77
2023/12/24 08:44:16;;;;;;;0.90;0.70;;;;;;;10.79;nan;99569.41;4946838;28;20227;-76
2023/12/24 08:46:45;;;;;;;0.87;0.70;;;;;;;10.73;nan;99562.78;4949731;28;20737;-77
2023/12/24 08:49:11;;;;;;;0.90;0.75;;;;;;;10.77;nan;99551.09;4950032;28;20192;-77
2023/12/24 08:51:37;;;;;;;0.70;0.57;;;;;;;10.82;nan;99562.16;4941384;28;20532;-77
2023/12/24 08:54:02;;;;;;;0.80;0.70;;;;;;;10.83;nan;99549.91;4944201;28;20200;-76
2023/12/24 08:56:27;;;;;;;0.80;0.70;;;;;;;10.82;nan;99556.91;4944815;28;21216;-77
2023/12/24 08:58:53;;;;;;;0.60;0.60;;;;;;;10.81;nan;99560.50;4944669;28;20258;-76
2023/12/24 09:01:18;;;;;;;0.60;0.60;;;;;;;10.84;nan;99544.53;4946992;28;20205;-77
2023/12/24 09:03:44;;;;;;;0.80;0.70;;;;;;;10.88;nan;99557.44;4949165;28;20317;-78
2023/12/24 09:06:09;;;;;;;1.23;0.97;;;;;;;10.90;nan;99558.19;4948750;28;20199;-77
2023/12/24 09:08:34;;;;;;;0.70;0.63;;;;;;;10.92;nan;99566.84;4947100;28;20382;-77
2023/12/24 09:11:00;;;;;;;1.00;0.90;;;;;;;10.89;nan;99573.13;4945367;28;20545;-77
2023/12/24 09:13:25;;;;;;;0.90;0.60;;;;;;;10.90;nan;99563.47;4947884;28;20262;-77
2023/12/24 09:15:51;;;;;;;1.20;0.80;;;;;;;10.91;nan;99580.91;4945399;28;20192;-77
2023/12/24 09:18:17;;;;;;;1.80;0.93;;;;;;;10.92;nan;99572.09;4946148;28;20270;-76
2023/12/24 09:20:42;;;;;;;3.37;0.90;;;;;;;10.93;nan;99589.53;4943612;28;20251;-77
2023/12/24 09:23:08;;;;;;;0.80;0.67;;;;;;;10.86;nan;99589.09;4951789;28;20239;-76
2023/12/24 09:25:33;;;;;;;0.83;0.70;;;;;;;10.87;nan;99580.25;4945892;28;20258;-77
2023/12/24 09:27:58;;;;;;;1.00;0.67;;;;;;;10.87;nan;99603.09;4947882;28;20192;-76
2023/12/24 09:30:24;;;;;;;0.90;0.80;;;;;;;10.84;nan;99615.47;4929418;28;20933;-77
2023/12/24 09:32:50;;;;;;;1.23;0.68;;;;;;;10.88;nan;99621.34;4941197;28;20701;-76
2023/12/24 09:35:15;;;;;;;0.80;0.70;;;;;;;10.88;nan;99617.88;4940167;28;20252;-77
2023/12/24 09:37:40;;;;;;;1.10;1.00;;;;;;;10.86;nan;99625.88;4933154;28;20204;-76
2023/12/24 09:40:07;;;;;;;3.60;0.80;;;;;;;10.88;nan;99631.03;4941414;28;20222;-77
2023/12/24 09:42:34;;;;;;;1.23;0.70;;;;;;;10.89;nan;99627.47;4940486;28;20813;-77
2023/12/24 09:45:00;;;;;;;1.13;1.02;;;;;;;10.91;nan;99636.09;4937795;28;20192;-76
2023/12/24 09:47:26;;;;;;;0.70;0.60;;;;;;;10.93;nan;99648.19;4936069;28;20203;-76
2023/12/24 09:49:52;;;;;;;0.80;0.80;;;;;;;10.93;nan;99645.56;4939898;28;20583;-76
2023/12/24 09:52:17;;;;;;;0.70;0.70;;;;;;;10.92;nan;99629.91;4940508;28;20199;-77
2023/12/24 09:54:46;;;;;;;1.10;0.80;;;;;;;10.91;nan;99626.44;4940960;28;20463;-77
2023/12/24 09:57:15;;;;;;;1.73;0.70;;;;;;;10.96;nan;99637.47;4936158;28;20204;-77
2023/12/24 09:59:40;;;;;;;0.70;0.60;;;;;;;10.98;nan;99640.00;4937591;28;20990;-77
2023/12/24 10:02:05;;;;;;;0.80;0.53;;;;;;;10.99;nan;99652.19;4940233;28;20439;-77
2023/12/24 10:04:31;;;;;;;0.70;0.63;;;;;;;10.98;nan;99643.47;4940096;28;20199;-77
2023/12/24 10:06:58;;;;;;;1.40;1.10;;;;;;;11.03;nan;99627.41;4940856;28;20296;-76
2023/12/24 10:09:24;;;;;;;1.40;0.90;;;;;;;11.06;nan;99638.56;4935724;28;20503;-76
2023/12/24 10:12:06;;;;;;;1.00;0.90;;;;;;;11.06;nan;99630.69;4937228;28;20243;-76
2023/12/24 10:14:32;;;;;;;3.55;0.80;;;;;;;11.06;nan;99637.72;4935110;28;20283;-77
2023/12/24 10:17:01;;;;;;;1.00;0.80;;;;;;;11.05;nan;99636.91;4938605;28;20262;-76
2023/12/24 10:19:28;;;;;;;2.05;0.90;;;;;;;11.07;nan;99634.16;4938409;28;20241;-77
2023/12/24 10:22:01;;;;;;;1.15;1.05;;;;;;;11.08;nan;99633.22;4938647;28;20232;-76
2023/12/24 10:24:29;;;;;;;1.15;0.70;;;;;;;11.08;nan;99636.69;4930077;28;20223;-77
2023/12/24 10:27:06;;;;;;;0.85;0.80;;;;;;;11.11;nan;99626.91;4932883;28;20248;-76
2023/12/24 10:29:36;;;;;;;0.80;0.75;;;;;;;11.04;nan;99613.31;4936696;28;20676;-76
2023/12/24 10:32:02;;;;;;;1.63;0.77;;;;;;;11.07;nan;99608.72;4928607;28;20200;-77
2023/12/24 10:34:28;;;;;;;0.70;0.60;;;;;;;11.10;nan;99596.31;4932264;28;20891;-77
2023/12/24 10:36:53;;;;;;;2.50;0.80;;;;;;;11.05;nan;99586.94;4937523;28;20247;-76
2023/12/24 10:39:24;;;;;;;1.13;0.80;;;;;;;11.08;nan;99588.53;4929804;28;20224;-76
2023/12/24 10:41:51;;;;;;;1.30;1.20;;;;;;;11.08;nan;99589.38;4935302;28;20212;-77
2023/12/24 10:44:17;;;;;;;2.97;1.48;;;;;;;11.09;nan;99577.06;4936641;28;20718;-77
2023/12/24 10:46:42;;;;;;;0.90;0.70;;;;;;;11.13;nan;99564.59;4915049;28;21121;-77
2023/12/24 10:49:07;;;;;;;2.40;1.33;;;;;;;11.14;nan;99564.47;4936558;28;20227;-77
2023/12/24 10:51:33;;;;;;;1.33;1.07;;;;;;;11.13;nan;99562.78;4935705;28;20247;-76
2023/12/24 10:53:59;;;;;;;1.27;1.07;;;;;;;11.16;nan;99573.09;4917325;28;20185;-76
2023/12/24 10:56:32;;;;;;;0.80;0.70;;;;;;;11.17;nan;99572.13;4936038;28;20677;-77
2023/12/24 10:59:10;;;;;;;1.67;0.88;;;;;;;11.16;nan;99586.25;4931841;28;20920;-77
2023/12/24 11:01:35;;;;;;;0.77;0.70;;;;;;;11.17;nan;99582.66;4930558;28;20295;-77
2023/12/24 11:04:01;;;;;;;1.30;0.80;;;;;;;11.18;nan;99597.50;4939621;28;20295;-78
2023/12/24 11:06:36;;;;;;;1.07;0.87;;;;;;;11.19;nan;99570.25;4942478;28;20673;-77
2023/12/24 11:09:04;;;;;;;1.30;1.00;;;;;;;11.20;nan;99564.03;4938206;28;20801;-77
2023/12/24 11:11:53;;;;;;;0.80;0.80;;;;;;;11.23;nan;99576.13;4936309;28;20283;-77
2023/12/24 11:14:54;;;;;;;0.80;0.80;;;;;;;11.22;nan;99559.53;4938333;28;20196;-77
2023/12/24 11:17:44;;;;;;;0.90;0.88;;;;;;;11.23;nan;99555.97;4925064;28;20750;-77
2023/12/24 11:20:19;;;;;;;1.42;0.90;;;;;;;11.19;nan;99556.28;4940589;28;20243;-77
2023/12/24 11:23:03;;;;;;;1.45;1.00;;;;;;;11.22;nan;99543.75;4941219;28;20244;-77
2023/12/24 11:25:40;;;;;;;1.10;0.90;;;;;;;11.24;nan;99533.16;4939400;28;20195;-77
2023/12/24 11:28:09;;;;;;;1.10;0.80;;;;;;;11.23;nan;99544.59;4922054;28;20219;-77
2023/12/24 11:30:50;;;;;;;0.75;0.70;;;;;;;11.26;nan;99529.47;4937482;28;20200;-77
2023/12/24 11:33:31;;;;;;;0.95;0.70;;;;;;;11.23;nan;99519.16;4941322;28;20620;-77
2023/12/24 11:36:00;;;;;;;0.90;0.68;;;;;;;11.24;nan;99506.84;4937264;28;20275;-77
2023/12/24 11:38:39;;;;;;;0.70;0.70;;;;;;;11.24;nan;99506.84;4941484;28;20506;-77
2023/12/24 11:41:08;;;;;;;0.90;0.80;;;;;;;11.28;nan;99493.38;4923696;28;20567;-77
2023/12/24 11:43:37;;;;;;;0.70;0.70;;;;;;;11.31;nan;99500.22;4943451;28;20201;-77
2023/12/24 11:46:04;;;;;;;1.00;0.90;;;;;;;11.33;nan;99497.50;4944352;28;20703;-76
2023/12/24 11:48:32;;;;;;;2.05;1.25;;;;;;;11.31;nan;99492.31;4947360;28;20257;-77
2023/12/24 11:51:10;;;;;;;0.70;0.70;;;;;;;11.34;nan;99494.78;4944333;28;20188;-77